Ana Sayfa
METAR-TAF:

METAR-TAF

Havaalanları :

Košice, Slovakya

Enlem: 48-39-47N, Boylam: 021-14-28E, yükseklik: 232 m

Güncel hava durumu gözlemi

Rapor saat 05:30 UTC de 28 dakika önce yapıldı.
Rüzgar kuzey/kuzeydoğudan 3 kt
Sıcaklık -2°C
Nem 69%
Basınç 1024 hPa
Görüş mesafesi 10 km veya daha fazla
1500 m altında bulut yok ve kümülonimbus yok

METAR: LZKZ 010530Z 03003KT CAVOK M02/M07 Q1024 NOSIG

Saat: 07:58 (05:58 UTC)

Tahmin

Rapor saat 05:00 UTC de 58 dakika önce yapıldı.
Ayın 01'si saat 06 UTC'den ayın 02'si saat 06 UTC'ye kadar geçerli Tahmin
Rüzgar değişken yönden 2 kt
Görüş mesafesi 10 km veya daha fazla
1500 m altında bulut yok ve kümülonimbus yok
Dönüşüyor
ayın 01'si saat 09 UTC'den ayın 01'si saat 11 UTC'ye kadar
Rüzgar güney/güneybatıdan 8 kt

TAF: LZKZ 010500Z 0106/0206 VRB02KT CAVOK BECMG 0109/0111 21008KT

4.000'den fazla havaalanı için hava durumu gözlemleri ve tahminleri (METAR ve TAF raporları).

Kullanılabilir istasyonlar harita üzerinde sarı ve kırmızı noktalarla gösterilir.

İstasyonun adını görmek için fareyi noktanın üzerinde gezdirin.

Sonrasında hava gözlem ve tahminlerini görmek için tıklayın.

Haritayı değiştirmek için: yaklaştırmak için siyah artı işaretli yeşil düğmeye ve uzaklaştırmak için de eksi işaretli düğmeye hızla tıklayın; bitişik haritalar için yeşil okları kullanın.


METAR-TAF: